sensor_id;sensor_type;location;lat;lon;timestamp;P1;durP1;ratioP1;P2;durP2;ratioP2
261;SDS011;114;48.260;10.988;2023-04-28T00:00:55;5.13;;;4.73;;
261;SDS011;114;48.260;10.988;2023-04-28T00:03:20;4.40;;;4.10;;
261;SDS011;114;48.260;10.988;2023-04-28T00:05:46;7.23;;;4.40;;
261;SDS011;114;48.260;10.988;2023-04-28T00:08:13;7.80;;;4.57;;
261;SDS011;114;48.260;10.988;2023-04-28T00:10:39;3.70;;;3.40;;
261;SDS011;114;48.260;10.988;2023-04-28T00:13:05;4.80;;;4.17;;
261;SDS011;114;48.260;10.988;2023-04-28T00:15:30;5.30;;;4.20;;
261;SDS011;114;48.260;10.988;2023-04-28T00:17:56;14.23;;;5.10;;
261;SDS011;114;48.260;10.988;2023-04-28T00:20:22;5.40;;;4.33;;
261;SDS011;114;48.260;10.988;2023-04-28T00:22:48;5.83;;;4.53;;
261;SDS011;114;48.260;10.988;2023-04-28T00:25:14;4.77;;;4.37;;
261;SDS011;114;48.260;10.988;2023-04-28T00:27:40;6.60;;;5.00;;
261;SDS011;114;48.260;10.988;2023-04-28T00:30:06;16.50;;;4.73;;
261;SDS011;114;48.260;10.988;2023-04-28T00:32:32;5.80;;;4.63;;
261;SDS011;114;48.260;10.988;2023-04-28T00:34:58;6.10;;;4.97;;
261;SDS011;114;48.260;10.988;2023-04-28T00:37:23;3.80;;;3.57;;
261;SDS011;114;48.260;10.988;2023-04-28T00:39:53;6.50;;;4.80;;
261;SDS011;114;48.260;10.988;2023-04-28T00:42:22;4.60;;;4.20;;
261;SDS011;114;48.260;10.988;2023-04-28T00:44:48;6.60;;;4.87;;
261;SDS011;114;48.260;10.988;2023-04-28T00:47:15;5.30;;;4.90;;
261;SDS011;114;48.260;10.988;2023-04-28T00:49:43;5.40;;;4.60;;
261;SDS011;114;48.260;10.988;2023-04-28T00:52:09;5.53;;;4.93;;
261;SDS011;114;48.260;10.988;2023-04-28T00:54:35;6.90;;;4.40;;
261;SDS011;114;48.260;10.988;2023-04-28T00:57:01;5.20;;;4.80;;
261;SDS011;114;48.260;10.988;2023-04-28T00:59:29;5.10;;;4.70;;
261;SDS011;114;48.260;10.988;2023-04-28T01:01:55;5.63;;;4.80;;
261;SDS011;114;48.260;10.988;2023-04-28T01:04:20;5.70;;;5.10;;
261;SDS011;114;48.260;10.988;2023-04-28T01:06:50;5.30;;;4.83;;
261;SDS011;114;48.260;10.988;2023-04-28T01:09:17;7.43;;;5.00;;
261;SDS011;114;48.260;10.988;2023-04-28T01:11:43;4.90;;;4.50;;
261;SDS011;114;48.260;10.988;2023-04-28T01:14:09;4.83;;;4.40;;
261;SDS011;114;48.260;10.988;2023-04-28T01:16:35;5.17;;;4.67;;
261;SDS011;114;48.260;10.988;2023-04-28T01:19:02;4.47;;;4.07;;
261;SDS011;114;48.260;10.988;2023-04-28T01:21:32;5.43;;;5.03;;
261;SDS011;114;48.260;10.988;2023-04-28T01:23:59;7.17;;;4.90;;
261;SDS011;114;48.260;10.988;2023-04-28T01:26:25;7.07;;;5.17;;
261;SDS011;114;48.260;10.988;2023-04-28T01:28:51;4.70;;;4.37;;
261;SDS011;114;48.260;10.988;2023-04-28T01:31:17;4.57;;;4.17;;
261;SDS011;114;48.260;10.988;2023-04-28T01:33:44;4.70;;;4.30;;
261;SDS011;114;48.260;10.988;2023-04-28T01:36:10;5.90;;;3.70;;
261;SDS011;114;48.260;10.988;2023-04-28T01:38:35;5.77;;;4.03;;
261;SDS011;114;48.260;10.988;2023-04-28T01:41:01;5.53;;;4.23;;
261;SDS011;114;48.260;10.988;2023-04-28T01:43:27;5.20;;;4.30;;
261;SDS011;114;48.260;10.988;2023-04-28T01:45:53;4.83;;;4.43;;
261;SDS011;114;48.260;10.988;2023-04-28T01:48:19;3.80;;;3.60;;
261;SDS011;114;48.260;10.988;2023-04-28T01:50:45;5.23;;;3.83;;
261;SDS011;114;48.260;10.988;2023-04-28T01:53:11;4.73;;;3.70;;
261;SDS011;114;48.260;10.988;2023-04-28T01:55:37;4.93;;;4.30;;
261;SDS011;114;48.260;10.988;2023-04-28T01:58:03;4.07;;;3.70;;
261;SDS011;114;48.260;10.988;2023-04-28T02:00:28;3.97;;;3.70;;
261;SDS011;114;48.260;10.988;2023-04-28T02:02:54;4.40;;;4.07;;
261;SDS011;114;48.260;10.988;2023-04-28T02:05:20;4.30;;;3.40;;
261;SDS011;114;48.260;10.988;2023-04-28T02:07:46;5.27;;;3.00;;
261;SDS011;114;48.260;10.988;2023-04-28T02:10:12;6.20;;;4.10;;
261;SDS011;114;48.260;10.988;2023-04-28T02:12:38;4.17;;;3.77;;
261;SDS011;114;48.260;10.988;2023-04-28T02:15:05;5.43;;;3.87;;
261;SDS011;114;48.260;10.988;2023-04-28T02:17:32;3.90;;;3.70;;
261;SDS011;114;48.260;10.988;2023-04-28T02:19:57;6.10;;;3.90;;
261;SDS011;114;48.260;10.988;2023-04-28T02:22:23;4.10;;;3.80;;
261;SDS011;114;48.260;10.988;2023-04-28T02:24:49;3.30;;;3.10;;
261;SDS011;114;48.260;10.988;2023-04-28T02:27:16;3.20;;;3.00;;
261;SDS011;114;48.260;10.988;2023-04-28T02:29:42;3.40;;;3.10;;
261;SDS011;114;48.260;10.988;2023-04-28T02:32:08;2.37;;;2.27;;
261;SDS011;114;48.260;10.988;2023-04-28T02:34:33;3.60;;;2.30;;
261;SDS011;114;48.260;10.988;2023-04-28T02:36:59;4.60;;;3.03;;
261;SDS011;114;48.260;10.988;2023-04-28T02:39:25;2.70;;;2.50;;
261;SDS011;114;48.260;10.988;2023-04-28T02:41:52;3.40;;;2.73;;
261;SDS011;114;48.260;10.988;2023-04-28T02:44:19;2.80;;;2.60;;
261;SDS011;114;48.260;10.988;2023-04-28T02:46:44;3.23;;;2.47;;
261;SDS011;114;48.260;10.988;2023-04-28T02:49:10;3.20;;;3.10;;
261;SDS011;114;48.260;10.988;2023-04-28T02:51:36;2.40;;;2.20;;
261;SDS011;114;48.260;10.988;2023-04-28T02:54:02;2.83;;;2.70;;
261;SDS011;114;48.260;10.988;2023-04-28T02:56:28;2.50;;;2.30;;
261;SDS011;114;48.260;10.988;2023-04-28T02:58:54;5.70;;;2.30;;
261;SDS011;114;48.260;10.988;2023-04-28T03:01:20;2.07;;;1.97;;
261;SDS011;114;48.260;10.988;2023-04-28T03:03:46;2.47;;;2.37;;
261;SDS011;114;48.260;10.988;2023-04-28T03:06:11;2.43;;;2.33;;
261;SDS011;114;48.260;10.988;2023-04-28T03:08:37;2.50;;;2.33;;
261;SDS011;114;48.260;10.988;2023-04-28T03:11:03;3.00;;;2.90;;
261;SDS011;114;48.260;10.988;2023-04-28T03:13:29;3.77;;;2.50;;
261;SDS011;114;48.260;10.988;2023-04-28T03:15:54;2.13;;;1.93;;
261;SDS011;114;48.260;10.988;2023-04-28T03:18:20;4.23;;;2.10;;
261;SDS011;114;48.260;10.988;2023-04-28T03:20:49;2.73;;;2.53;;
261;SDS011;114;48.260;10.988;2023-04-28T03:23:15;1.90;;;1.80;;
261;SDS011;114;48.260;10.988;2023-04-28T03:25:41;4.93;;;3.07;;
261;SDS011;114;48.260;10.988;2023-04-28T03:28:06;3.00;;;2.80;;
261;SDS011;114;48.260;10.988;2023-04-28T03:30:34;2.63;;;2.40;;
261;SDS011;114;48.260;10.988;2023-04-28T03:33:00;2.80;;;2.60;;
261;SDS011;114;48.260;10.988;2023-04-28T03:35:26;4.03;;;3.17;;
261;SDS011;114;48.260;10.988;2023-04-28T03:37:51;3.10;;;3.00;;
261;SDS011;114;48.260;10.988;2023-04-28T03:40:17;4.00;;;3.70;;
261;SDS011;114;48.260;10.988;2023-04-28T03:42:43;9.00;;;4.83;;
261;SDS011;114;48.260;10.988;2023-04-28T03:45:09;5.40;;;5.00;;
261;SDS011;114;48.260;10.988;2023-04-28T03:47:35;4.43;;;3.93;;
261;SDS011;114;48.260;10.988;2023-04-28T03:50:01;5.97;;;4.80;;
261;SDS011;114;48.260;10.988;2023-04-28T03:52:27;4.33;;;3.93;;
261;SDS011;114;48.260;10.988;2023-04-28T03:54:52;4.67;;;4.37;;
261;SDS011;114;48.260;10.988;2023-04-28T03:57:18;7.13;;;5.17;;
261;SDS011;114;48.260;10.988;2023-04-28T03:59:44;4.77;;;4.53;;
261;SDS011;114;48.260;10.988;2023-04-28T04:02:09;5.17;;;4.77;;
261;SDS011;114;48.260;10.988;2023-04-28T04:04:35;6.03;;;5.23;;
261;SDS011;114;48.260;10.988;2023-04-28T04:07:01;4.73;;;4.43;;
261;SDS011;114;48.260;10.988;2023-04-28T04:09:28;6.20;;;3.30;;
261;SDS011;114;48.260;10.988;2023-04-28T04:11:54;8.20;;;3.00;;
261;SDS011;114;48.260;10.988;2023-04-28T04:14:19;3.47;;;3.23;;
261;SDS011;114;48.260;10.988;2023-04-28T04:16:45;3.03;;;2.83;;
261;SDS011;114;48.260;10.988;2023-04-28T04:19:12;3.17;;;2.90;;
261;SDS011;114;48.260;10.988;2023-04-28T04:21:38;11.93;;;3.10;;
261;SDS011;114;48.260;10.988;2023-04-28T04:24:04;4.80;;;3.20;;
261;SDS011;114;48.260;10.988;2023-04-28T04:26:29;5.53;;;3.13;;
261;SDS011;114;48.260;10.988;2023-04-28T04:28:55;3.53;;;2.67;;
261;SDS011;114;48.260;10.988;2023-04-28T04:31:21;3.83;;;2.90;;
261;SDS011;114;48.260;10.988;2023-04-28T04:33:47;3.00;;;2.80;;
261;SDS011;114;48.260;10.988;2023-04-28T04:36:13;3.20;;;3.00;;
261;SDS011;114;48.260;10.988;2023-04-28T04:38:38;3.80;;;3.50;;
261;SDS011;114;48.260;10.988;2023-04-28T04:41:04;3.43;;;3.13;;
261;SDS011;114;48.260;10.988;2023-04-28T04:43:30;7.17;;;3.70;;
261;SDS011;114;48.260;10.988;2023-04-28T04:45:56;3.60;;;3.40;;
261;SDS011;114;48.260;10.988;2023-04-28T04:48:22;4.93;;;3.00;;
261;SDS011;114;48.260;10.988;2023-04-28T04:50:48;4.07;;;3.27;;
261;SDS011;114;48.260;10.988;2023-04-28T04:53:13;3.90;;;3.10;;
261;SDS011;114;48.260;10.988;2023-04-28T04:55:39;4.40;;;3.00;;
261;SDS011;114;48.260;10.988;2023-04-28T04:58:05;3.03;;;2.83;;
261;SDS011;114;48.260;10.988;2023-04-28T05:00:31;3.47;;;3.27;;
261;SDS011;114;48.260;10.988;2023-04-28T05:02:57;3.10;;;2.90;;
261;SDS011;114;48.260;10.988;2023-04-28T05:05:24;3.10;;;2.90;;
261;SDS011;114;48.260;10.988;2023-04-28T05:07:50;3.53;;;2.60;;
261;SDS011;114;48.260;10.988;2023-04-28T05:10:16;4.77;;;2.97;;
261;SDS011;114;48.260;10.988;2023-04-28T05:12:41;3.03;;;2.80;;
261;SDS011;114;48.260;10.988;2023-04-28T05:15:08;2.43;;;2.33;;
261;SDS011;114;48.260;10.988;2023-04-28T05:17:35;2.30;;;2.10;;
261;SDS011;114;48.260;10.988;2023-04-28T05:20:00;5.13;;;2.53;;
261;SDS011;114;48.260;10.988;2023-04-28T05:22:26;3.10;;;2.90;;
261;SDS011;114;48.260;10.988;2023-04-28T05:24:52;2.50;;;2.40;;
261;SDS011;114;48.260;10.988;2023-04-28T05:27:18;2.80;;;2.40;;
261;SDS011;114;48.260;10.988;2023-04-28T05:29:43;3.03;;;2.83;;
261;SDS011;114;48.260;10.988;2023-04-28T05:32:09;5.47;;;2.73;;
261;SDS011;114;48.260;10.988;2023-04-28T05:34:35;3.30;;;3.10;;
261;SDS011;114;48.260;10.988;2023-04-28T05:37:01;3.53;;;3.00;;
261;SDS011;114;48.260;10.988;2023-04-28T05:39:26;3.23;;;2.87;;
261;SDS011;114;48.260;10.988;2023-04-28T05:41:52;2.80;;;2.60;;
261;SDS011;114;48.260;10.988;2023-04-28T05:44:18;3.37;;;3.07;;
261;SDS011;114;48.260;10.988;2023-04-28T05:46:43;2.40;;;2.30;;
261;SDS011;114;48.260;10.988;2023-04-28T05:49:09;3.70;;;2.20;;
261;SDS011;114;48.260;10.988;2023-04-28T05:51:35;2.83;;;2.73;;
261;SDS011;114;48.260;10.988;2023-04-28T05:54:01;2.27;;;2.17;;
261;SDS011;114;48.260;10.988;2023-04-28T05:56:27;3.37;;;2.73;;
261;SDS011;114;48.260;10.988;2023-04-28T05:58:53;2.77;;;2.13;;
261;SDS011;114;48.260;10.988;2023-04-28T06:01:21;2.70;;;2.50;;
261;SDS011;114;48.260;10.988;2023-04-28T06:03:47;2.97;;;2.67;;
261;SDS011;114;48.260;10.988;2023-04-28T06:06:12;4.13;;;2.83;;
261;SDS011;114;48.260;10.988;2023-04-28T06:08:38;5.30;;;3.33;;
261;SDS011;114;48.260;10.988;2023-04-28T06:11:04;2.90;;;2.70;;
261;SDS011;114;48.260;10.988;2023-04-28T06:13:30;9.30;;;2.20;;
261;SDS011;114;48.260;10.988;2023-04-28T06:15:57;3.20;;;2.50;;
261;SDS011;114;48.260;10.988;2023-04-28T06:18:23;1.90;;;1.80;;
261;SDS011;114;48.260;10.988;2023-04-28T06:20:49;2.63;;;1.90;;
261;SDS011;114;48.260;10.988;2023-04-28T06:23:14;2.20;;;2.03;;
261;SDS011;114;48.260;10.988;2023-04-28T06:25:40;2.00;;;1.70;;
261;SDS011;114;48.260;10.988;2023-04-28T06:28:06;2.33;;;2.13;;
261;SDS011;114;48.260;10.988;2023-04-28T06:30:32;3.53;;;2.27;;
261;SDS011;114;48.260;10.988;2023-04-28T06:32:59;2.10;;;2.00;;
261;SDS011;114;48.260;10.988;2023-04-28T06:35:24;3.00;;;2.60;;
261;SDS011;114;48.260;10.988;2023-04-28T06:37:50;2.50;;;2.30;;
261;SDS011;114;48.260;10.988;2023-04-28T06:40:16;2.80;;;2.50;;
261;SDS011;114;48.260;10.988;2023-04-28T06:42:42;7.03;;;2.30;;
261;SDS011;114;48.260;10.988;2023-04-28T06:45:08;2.00;;;1.90;;
261;SDS011;114;48.260;10.988;2023-04-28T06:47:34;2.57;;;2.20;;
261;SDS011;114;48.260;10.988;2023-04-28T06:50:01;1.40;;;1.30;;
261;SDS011;114;48.260;10.988;2023-04-28T06:52:27;1.73;;;1.63;;
261;SDS011;114;48.260;10.988;2023-04-28T06:54:54;2.20;;;2.00;;
261;SDS011;114;48.260;10.988;2023-04-28T06:57:20;5.10;;;2.13;;
261;SDS011;114;48.260;10.988;2023-04-28T06:59:46;1.77;;;1.67;;
261;SDS011;114;48.260;10.988;2023-04-28T07:02:12;1.57;;;1.50;;
261;SDS011;114;48.260;10.988;2023-04-28T07:04:37;1.30;;;1.20;;
261;SDS011;114;48.260;10.988;2023-04-28T07:07:03;1.40;;;1.30;;
261;SDS011;114;48.260;10.988;2023-04-28T07:09:35;1.37;;;1.23;;
261;SDS011;114;48.260;10.988;2023-04-28T07:12:01;2.93;;;1.13;;
261;SDS011;114;48.260;10.988;2023-04-28T07:14:28;0.80;;;0.67;;
261;SDS011;114;48.260;10.988;2023-04-28T07:16:54;0.60;;;0.60;;
261;SDS011;114;48.260;10.988;2023-04-28T07:19:20;2.50;;;1.00;;
261;SDS011;114;48.260;10.988;2023-04-28T07:21:45;1.47;;;1.07;;
261;SDS011;114;48.260;10.988;2023-04-28T07:24:11;0.53;;;0.50;;
261;SDS011;114;48.260;10.988;2023-04-28T07:26:38;0.70;;;0.40;;
261;SDS011;114;48.260;10.988;2023-04-28T07:29:03;2.13;;;1.07;;
261;SDS011;114;48.260;10.988;2023-04-28T07:31:29;0.80;;;0.80;;
261;SDS011;114;48.260;10.988;2023-04-28T07:33:55;0.93;;;0.93;;
261;SDS011;114;48.260;10.988;2023-04-28T07:36:21;1.20;;;1.10;;
261;SDS011;114;48.260;10.988;2023-04-28T07:38:47;2.60;;;0.87;;
261;SDS011;114;48.260;10.988;2023-04-28T07:41:13;2.03;;;0.90;;
261;SDS011;114;48.260;10.988;2023-04-28T07:43:38;3.23;;;2.53;;
261;SDS011;114;48.260;10.988;2023-04-28T07:46:05;0.93;;;0.93;;
261;SDS011;114;48.260;10.988;2023-04-28T07:48:33;1.80;;;0.83;;
261;SDS011;114;48.260;10.988;2023-04-28T07:50:59;2.10;;;1.20;;
261;SDS011;114;48.260;10.988;2023-04-28T07:53:25;2.47;;;1.33;;
261;SDS011;114;48.260;10.988;2023-04-28T07:55:51;2.50;;;0.80;;
261;SDS011;114;48.260;10.988;2023-04-28T07:58:17;3.23;;;0.60;;
261;SDS011;114;48.260;10.988;2023-04-28T08:00:42;1.90;;;0.93;;
261;SDS011;114;48.260;10.988;2023-04-28T08:03:08;6.93;;;1.23;;
261;SDS011;114;48.260;10.988;2023-04-28T08:05:34;0.77;;;0.73;;
261;SDS011;114;48.260;10.988;2023-04-28T08:08:00;1.63;;;0.60;;
261;SDS011;114;48.260;10.988;2023-04-28T08:10:25;2.93;;;1.20;;
261;SDS011;114;48.260;10.988;2023-04-28T08:12:52;4.63;;;0.93;;
261;SDS011;114;48.260;10.988;2023-04-28T08:15:18;2.73;;;0.90;;
261;SDS011;114;48.260;10.988;2023-04-28T08:17:43;1.00;;;1.00;;
261;SDS011;114;48.260;10.988;2023-04-28T08:20:09;1.10;;;0.83;;
261;SDS011;114;48.260;10.988;2023-04-28T08:22:35;2.20;;;1.00;;
261;SDS011;114;48.260;10.988;2023-04-28T08:25:01;1.13;;;1.00;;
261;SDS011;114;48.260;10.988;2023-04-28T08:27:27;1.67;;;1.00;;
261;SDS011;114;48.260;10.988;2023-04-28T08:29:52;3.23;;;1.17;;
261;SDS011;114;48.260;10.988;2023-04-28T08:32:18;3.43;;;1.20;;
261;SDS011;114;48.260;10.988;2023-04-28T08:34:44;1.90;;;1.30;;
261;SDS011;114;48.260;10.988;2023-04-28T08:37:09;2.97;;;1.20;;
261;SDS011;114;48.260;10.988;2023-04-28T08:39:35;1.00;;;0.90;;
261;SDS011;114;48.260;10.988;2023-04-28T08:42:04;1.20;;;1.20;;
261;SDS011;114;48.260;10.988;2023-04-28T08:44:35;1.10;;;1.10;;
261;SDS011;114;48.260;10.988;2023-04-28T08:47:03;5.07;;;1.23;;
261;SDS011;114;48.260;10.988;2023-04-28T08:49:37;1.00;;;1.00;;
261;SDS011;114;48.260;10.988;2023-04-28T08:52:04;1.67;;;1.00;;
261;SDS011;114;48.260;10.988;2023-04-28T08:54:39;2.33;;;0.90;;
261;SDS011;114;48.260;10.988;2023-04-28T08:57:07;1.00;;;1.00;;
261;SDS011;114;48.260;10.988;2023-04-28T08:59:33;1.67;;;0.80;;
261;SDS011;114;48.260;10.988;2023-04-28T09:02:02;1.07;;;0.60;;
261;SDS011;114;48.260;10.988;2023-04-28T09:04:28;1.03;;;0.80;;
261;SDS011;114;48.260;10.988;2023-04-28T09:06:54;2.07;;;0.80;;
261;SDS011;114;48.260;10.988;2023-04-28T09:09:23;1.10;;;0.80;;
261;SDS011;114;48.260;10.988;2023-04-28T09:14:16;1.10;;;0.70;;
261;SDS011;114;48.260;10.988;2023-04-28T09:16:41;1.43;;;1.30;;
261;SDS011;114;48.260;10.988;2023-04-28T09:19:08;1.20;;;1.10;;
261;SDS011;114;48.260;10.988;2023-04-28T09:21:44;1.43;;;1.33;;
261;SDS011;114;48.260;10.988;2023-04-28T09:24:24;3.43;;;1.80;;
261;SDS011;114;48.260;10.988;2023-04-28T09:26:58;1.40;;;1.30;;
261;SDS011;114;48.260;10.988;2023-04-28T09:29:24;2.37;;;1.73;;
261;SDS011;114;48.260;10.988;2023-04-28T09:31:50;1.50;;;1.30;;
261;SDS011;114;48.260;10.988;2023-04-28T09:34:17;1.97;;;1.20;;
261;SDS011;114;48.260;10.988;2023-04-28T09:36:43;1.33;;;1.30;;
261;SDS011;114;48.260;10.988;2023-04-28T09:39:09;2.57;;;1.80;;
261;SDS011;114;48.260;10.988;2023-04-28T09:41:39;2.23;;;1.70;;
261;SDS011;114;48.260;10.988;2023-04-28T09:44:18;2.70;;;1.70;;
261;SDS011;114;48.260;10.988;2023-04-28T09:46:45;1.50;;;1.40;;
261;SDS011;114;48.260;10.988;2023-04-28T09:49:12;2.00;;;1.80;;
261;SDS011;114;48.260;10.988;2023-04-28T09:51:38;1.40;;;1.23;;
261;SDS011;114;48.260;10.988;2023-04-28T09:54:04;1.90;;;1.80;;
261;SDS011;114;48.260;10.988;2023-04-28T09:56:31;5.33;;;1.80;;
261;SDS011;114;48.260;10.988;2023-04-28T09:59:00;2.50;;;1.50;;
261;SDS011;114;48.260;10.988;2023-04-28T10:01:26;1.57;;;1.20;;
261;SDS011;114;48.260;10.988;2023-04-28T10:03:55;1.63;;;1.53;;
261;SDS011;114;48.260;10.988;2023-04-28T10:06:21;8.93;;;1.60;;
261;SDS011;114;48.260;10.988;2023-04-28T10:08:47;2.37;;;2.10;;
261;SDS011;114;48.260;10.988;2023-04-28T10:11:16;1.70;;;1.60;;
261;SDS011;114;48.260;10.988;2023-04-28T10:13:42;2.70;;;1.77;;
261;SDS011;114;48.260;10.988;2023-04-28T10:16:09;4.20;;;2.10;;
261;SDS011;114;48.260;10.988;2023-04-28T10:18:35;1.67;;;1.57;;
261;SDS011;114;48.260;10.988;2023-04-28T10:21:02;5.03;;;2.37;;
261;SDS011;114;48.260;10.988;2023-04-28T10:26:09;2.43;;;2.33;;
261;SDS011;114;48.260;10.988;2023-04-28T10:28:47;2.70;;;1.77;;
261;SDS011;114;48.260;10.988;2023-04-28T10:31:19;2.20;;;1.37;;
261;SDS011;114;48.260;10.988;2023-04-28T10:33:46;2.40;;;1.40;;
261;SDS011;114;48.260;10.988;2023-04-28T10:39:14;1.80;;;1.43;;
261;SDS011;114;48.260;10.988;2023-04-28T10:41:40;1.90;;;1.80;;
261;SDS011;114;48.260;10.988;2023-04-28T10:47:00;5.50;;;5.00;;
261;SDS011;114;48.260;10.988;2023-04-28T11:00:44;2.13;;;2.03;;
261;SDS011;114;48.260;10.988;2023-04-28T11:06:25;1.43;;;1.33;;
261;SDS011;114;48.260;10.988;2023-04-28T11:08:56;2.43;;;1.47;;
261;SDS011;114;48.260;10.988;2023-04-28T11:11:33;1.43;;;1.43;;
261;SDS011;114;48.260;10.988;2023-04-28T11:22:00;1.63;;;1.53;;
261;SDS011;114;48.260;10.988;2023-04-28T11:24:27;1.30;;;1.20;;
261;SDS011;114;48.260;10.988;2023-04-28T11:26:54;1.40;;;1.40;;
261;SDS011;114;48.260;10.988;2023-04-28T11:29:29;3.03;;;1.40;;
261;SDS011;114;48.260;10.988;2023-04-28T11:32:00;0.93;;;0.93;;
261;SDS011;114;48.260;10.988;2023-04-28T11:34:29;1.43;;;1.33;;
261;SDS011;114;48.260;10.988;2023-04-28T11:36:55;1.83;;;1.60;;
261;SDS011;114;48.260;10.988;2023-04-28T11:39:25;1.50;;;1.40;;
261;SDS011;114;48.260;10.988;2023-04-28T11:41:55;1.33;;;1.23;;
261;SDS011;114;48.260;10.988;2023-04-28T11:44:28;1.20;;;1.20;;
261;SDS011;114;48.260;10.988;2023-04-28T11:49:25;1.20;;;1.20;;
261;SDS011;114;48.260;10.988;2023-04-28T11:51:55;1.30;;;1.30;;
261;SDS011;114;48.260;10.988;2023-04-28T11:54:24;1.23;;;1.10;;
261;SDS011;114;48.260;10.988;2023-04-28T11:56:53;1.33;;;1.10;;
261;SDS011;114;48.260;10.988;2023-04-28T11:59:25;1.03;;;1.00;;
261;SDS011;114;48.260;10.988;2023-04-28T12:02:00;1.63;;;1.07;;
261;SDS011;114;48.260;10.988;2023-04-28T12:04:34;1.80;;;1.67;;
261;SDS011;114;48.260;10.988;2023-04-28T12:12:08;1.07;;;1.07;;
261;SDS011;114;48.260;10.988;2023-04-28T12:14:55;1.60;;;1.50;;
261;SDS011;114;48.260;10.988;2023-04-28T12:17:28;2.73;;;1.43;;
261;SDS011;114;48.260;10.988;2023-04-28T12:19:56;1.67;;;1.57;;
261;SDS011;114;48.260;10.988;2023-04-28T12:22:23;3.30;;;3.10;;
261;SDS011;114;48.260;10.988;2023-04-28T12:25:03;1.27;;;1.10;;
261;SDS011;114;48.260;10.988;2023-04-28T12:27:28;1.43;;;1.43;;
261;SDS011;114;48.260;10.988;2023-04-28T12:29:56;0.97;;;0.93;;
261;SDS011;114;48.260;10.988;2023-04-28T12:32:43;1.37;;;1.27;;
261;SDS011;114;48.260;10.988;2023-04-28T12:35:08;2.13;;;1.93;;
261;SDS011;114;48.260;10.988;2023-04-28T12:37:34;9.77;;;4.90;;
261;SDS011;114;48.260;10.988;2023-04-28T12:40:02;20.50;;;5.77;;
261;SDS011;114;48.260;10.988;2023-04-28T12:42:28;4.93;;;2.60;;
261;SDS011;114;48.260;10.988;2023-04-28T12:44:54;8.60;;;2.50;;
261;SDS011;114;48.260;10.988;2023-04-28T12:47:20;1.37;;;0.63;;
261;SDS011;114;48.260;10.988;2023-04-28T12:49:46;3.07;;;1.07;;
261;SDS011;114;48.260;10.988;2023-04-28T12:52:14;4.53;;;1.40;;
261;SDS011;114;48.260;10.988;2023-04-28T12:54:40;6.73;;;3.23;;
261;SDS011;114;48.260;10.988;2023-04-28T12:57:11;25.33;;;8.07;;
261;SDS011;114;48.260;10.988;2023-04-28T12:59:43;22.43;;;8.90;;
261;SDS011;114;48.260;10.988;2023-04-28T13:02:11;5.53;;;2.90;;
261;SDS011;114;48.260;10.988;2023-04-28T13:04:38;14.03;;;4.60;;
261;SDS011;114;48.260;10.988;2023-04-28T13:07:06;33.53;;;7.73;;
261;SDS011;114;48.260;10.988;2023-04-28T13:09:32;4.37;;;3.40;;
261;SDS011;114;48.260;10.988;2023-04-28T13:11:58;2.80;;;2.07;;
261;SDS011;114;48.260;10.988;2023-04-28T13:14:24;8.03;;;4.00;;
261;SDS011;114;48.260;10.988;2023-04-28T13:16:51;3.80;;;3.50;;
261;SDS011;114;48.260;10.988;2023-04-28T13:19:17;15.20;;;2.60;;
261;SDS011;114;48.260;10.988;2023-04-28T13:21:43;1.60;;;1.10;;
261;SDS011;114;48.260;10.988;2023-04-28T13:24:11;4.83;;;3.43;;
261;SDS011;114;48.260;10.988;2023-04-28T13:26:37;2.20;;;1.70;;
261;SDS011;114;48.260;10.988;2023-04-28T13:29:03;25.13;;;11.20;;
261;SDS011;114;48.260;10.988;2023-04-28T13:31:29;6.53;;;3.27;;
261;SDS011;114;48.260;10.988;2023-04-28T13:33:56;7.03;;;3.10;;
261;SDS011;114;48.260;10.988;2023-04-28T13:36:21;4.90;;;1.57;;
261;SDS011;114;48.260;10.988;2023-04-28T13:38:48;2.20;;;1.03;;
261;SDS011;114;48.260;10.988;2023-04-28T13:41:14;2.50;;;1.00;;
261;SDS011;114;48.260;10.988;2023-04-28T13:43:41;1.17;;;0.73;;
261;SDS011;114;48.260;10.988;2023-04-28T13:46:06;0.70;;;0.60;;
261;SDS011;114;48.260;10.988;2023-04-28T13:48:33;0.50;;;0.40;;
261;SDS011;114;48.260;10.988;2023-04-28T13:51:00;1.37;;;0.57;;
261;SDS011;114;48.260;10.988;2023-04-28T13:53:26;0.63;;;0.63;;
261;SDS011;114;48.260;10.988;2023-04-28T13:55:52;0.73;;;0.73;;
261;SDS011;114;48.260;10.988;2023-04-28T13:58:21;0.60;;;0.50;;
261;SDS011;114;48.260;10.988;2023-04-28T14:00:53;0.53;;;0.53;;
261;SDS011;114;48.260;10.988;2023-04-28T14:03:20;17.93;;;7.20;;
261;SDS011;114;48.260;10.988;2023-04-28T14:05:47;5.60;;;2.50;;
261;SDS011;114;48.260;10.988;2023-04-28T14:08:13;2.93;;;1.30;;
261;SDS011;114;48.260;10.988;2023-04-28T14:10:40;1.33;;;0.90;;
261;SDS011;114;48.260;10.988;2023-04-28T14:13:05;2.20;;;1.30;;
261;SDS011;114;48.260;10.988;2023-04-28T14:15:31;1.53;;;1.20;;
261;SDS011;114;48.260;10.988;2023-04-28T14:17:57;3.83;;;1.30;;
261;SDS011;114;48.260;10.988;2023-04-28T14:20:23;1.00;;;0.90;;
261;SDS011;114;48.260;10.988;2023-04-28T14:22:49;11.40;;;4.23;;
261;SDS011;114;48.260;10.988;2023-04-28T14:25:15;2.23;;;1.40;;
261;SDS011;114;48.260;10.988;2023-04-28T14:27:42;4.27;;;3.23;;
261;SDS011;114;48.260;10.988;2023-04-28T14:30:08;0.87;;;0.87;;
261;SDS011;114;48.260;10.988;2023-04-28T14:32:34;10.53;;;2.80;;
261;SDS011;114;48.260;10.988;2023-04-28T14:35:03;4.17;;;2.67;;
261;SDS011;114;48.260;10.988;2023-04-28T14:37:30;3.73;;;2.23;;
261;SDS011;114;48.260;10.988;2023-04-28T14:39:57;2.07;;;1.63;;
261;SDS011;114;48.260;10.988;2023-04-28T14:42:27;3.63;;;2.03;;
261;SDS011;114;48.260;10.988;2023-04-28T14:44:57;1.20;;;0.97;;
261;SDS011;114;48.260;10.988;2023-04-28T14:47:23;1.87;;;1.00;;
261;SDS011;114;48.260;10.988;2023-04-28T14:49:50;1.10;;;1.00;;
261;SDS011;114;48.260;10.988;2023-04-28T14:52:18;2.40;;;2.20;;
261;SDS011;114;48.260;10.988;2023-04-28T14:54:47;5.03;;;2.90;;
261;SDS011;114;48.260;10.988;2023-04-28T14:57:13;1.70;;;1.60;;
261;SDS011;114;48.260;10.988;2023-04-28T14:59:39;2.17;;;2.00;;
261;SDS011;114;48.260;10.988;2023-04-28T15:02:05;4.00;;;1.90;;
261;SDS011;114;48.260;10.988;2023-04-28T15:04:32;4.20;;;1.97;;
261;SDS011;114;48.260;10.988;2023-04-28T15:06:58;3.03;;;1.70;;
261;SDS011;114;48.260;10.988;2023-04-28T15:09:25;1.10;;;1.10;;
261;SDS011;114;48.260;10.988;2023-04-28T15:11:51;4.70;;;1.23;;
261;SDS011;114;48.260;10.988;2023-04-28T15:14:16;1.03;;;1.03;;
261;SDS011;114;48.260;10.988;2023-04-28T15:16:43;3.10;;;1.30;;
261;SDS011;114;48.260;10.988;2023-04-28T15:19:09;1.73;;;1.57;;
261;SDS011;114;48.260;10.988;2023-04-28T15:21:35;1.10;;;1.10;;
261;SDS011;114;48.260;10.988;2023-04-28T15:24:01;5.23;;;1.90;;
261;SDS011;114;48.260;10.988;2023-04-28T15:26:27;2.70;;;1.67;;
261;SDS011;114;48.260;10.988;2023-04-28T15:28:53;1.80;;;1.70;;
261;SDS011;114;48.260;10.988;2023-04-28T15:31:19;1.83;;;1.50;;
261;SDS011;114;48.260;10.988;2023-04-28T15:33:49;1.30;;;1.20;;
261;SDS011;114;48.260;10.988;2023-04-28T15:36:18;1.33;;;1.33;;
261;SDS011;114;48.260;10.988;2023-04-28T15:38:45;2.00;;;1.47;;
261;SDS011;114;48.260;10.988;2023-04-28T15:41:12;2.57;;;2.37;;
261;SDS011;114;48.260;10.988;2023-04-28T15:43:39;2.63;;;2.53;;
261;SDS011;114;48.260;10.988;2023-04-28T15:46:05;0.90;;;0.90;;
261;SDS011;114;48.260;10.988;2023-04-28T15:48:35;1.10;;;1.10;;
261;SDS011;114;48.260;10.988;2023-04-28T15:51:03;3.23;;;2.93;;
261;SDS011;114;48.260;10.988;2023-04-28T15:53:29;3.87;;;3.67;;
261;SDS011;114;48.260;10.988;2023-04-28T15:55:55;4.23;;;3.70;;
261;SDS011;114;48.260;10.988;2023-04-28T15:58:21;2.03;;;1.93;;
261;SDS011;114;48.260;10.988;2023-04-28T16:00:47;2.70;;;2.50;;
261;SDS011;114;48.260;10.988;2023-04-28T16:03:13;3.00;;;2.80;;
261;SDS011;114;48.260;10.988;2023-04-28T16:05:39;1.90;;;1.80;;
261;SDS011;114;48.260;10.988;2023-04-28T16:08:04;1.67;;;1.57;;